sensor_id;sensor_type;location;lat;lon;timestamp;temperature;humidity
10282;DHT22;5186;59.472;18.048;2022-10-26T00:00:47;12.10;99.90
10282;DHT22;5186;59.472;18.048;2022-10-26T00:03:13;12.00;99.90
10282;DHT22;5186;59.472;18.048;2022-10-26T00:05:39;12.00;99.90
10282;DHT22;5186;59.472;18.048;2022-10-26T00:08:06;12.00;99.90
10282;DHT22;5186;59.472;18.048;2022-10-26T00:10:35;12.00;99.90
10282;DHT22;5186;59.472;18.048;2022-10-26T00:13:02;12.00;99.90
10282;DHT22;5186;59.472;18.048;2022-10-26T00:15:28;12.00;99.90
10282;DHT22;5186;59.472;18.048;2022-10-26T00:17:54;11.90;99.90
10282;DHT22;5186;59.472;18.048;2022-10-26T00:20:19;11.90;99.90
10282;DHT22;5186;59.472;18.048;2022-10-26T00:22:45;11.80;99.90
10282;DHT22;5186;59.472;18.048;2022-10-26T00:25:10;11.90;99.90
10282;DHT22;5186;59.472;18.048;2022-10-26T00:27:36;11.90;99.90
10282;DHT22;5186;59.472;18.048;2022-10-26T00:30:03;11.90;99.90
10282;DHT22;5186;59.472;18.048;2022-10-26T00:32:29;11.90;99.90
10282;DHT22;5186;59.472;18.048;2022-10-26T00:34:55;11.80;99.90
10282;DHT22;5186;59.472;18.048;2022-10-26T00:37:20;11.80;99.90
10282;DHT22;5186;59.472;18.048;2022-10-26T00:39:46;11.80;99.90
10282;DHT22;5186;59.472;18.048;2022-10-26T00:42:16;11.80;99.90
10282;DHT22;5186;59.472;18.048;2022-10-26T00:49:46;11.80;99.90
10282;DHT22;5186;59.472;18.048;2022-10-26T00:52:14;11.80;99.90
10282;DHT22;5186;59.472;18.048;2022-10-26T00:54:42;11.80;99.90
10282;DHT22;5186;59.472;18.048;2022-10-26T00:57:09;11.90;99.90
10282;DHT22;5186;59.472;18.048;2022-10-26T00:59:36;11.90;99.90
10282;DHT22;5186;59.472;18.048;2022-10-26T01:02:02;11.90;99.90
10282;DHT22;5186;59.472;18.048;2022-10-26T01:04:27;11.90;99.90
10282;DHT22;5186;59.472;18.048;2022-10-26T01:06:53;11.80;99.90
10282;DHT22;5186;59.472;18.048;2022-10-26T01:09:20;11.80;99.90
10282;DHT22;5186;59.472;18.048;2022-10-26T01:11:46;11.70;99.90
10282;DHT22;5186;59.472;18.048;2022-10-26T01:14:13;11.70;99.90
10282;DHT22;5186;59.472;18.048;2022-10-26T01:20:20;11.60;99.90
10282;DHT22;5186;59.472;18.048;2022-10-26T01:25:55;11.60;99.90
10282;DHT22;5186;59.472;18.048;2022-10-26T01:31:03;11.50;99.90
10282;DHT22;5186;59.472;18.048;2022-10-26T01:33:38;11.50;99.90
10282;DHT22;5186;59.472;18.048;2022-10-26T01:36:25;11.50;99.90
10282;DHT22;5186;59.472;18.048;2022-10-26T01:41:51;11.40;99.90
10282;DHT22;5186;59.472;18.048;2022-10-26T01:44:35;11.40;99.90
10282;DHT22;5186;59.472;18.048;2022-10-26T01:47:06;11.40;99.90
10282;DHT22;5186;59.472;18.048;2022-10-26T01:49:37;11.40;99.90
10282;DHT22;5186;59.472;18.048;2022-10-26T01:52:03;11.40;99.90
10282;DHT22;5186;59.472;18.048;2022-10-26T01:54:29;11.40;99.90
10282;DHT22;5186;59.472;18.048;2022-10-26T01:56:59;11.40;99.90
10282;DHT22;5186;59.472;18.048;2022-10-26T02:04:45;11.40;99.90
10282;DHT22;5186;59.472;18.048;2022-10-26T02:07:37;11.40;99.90
10282;DHT22;5186;59.472;18.048;2022-10-26T02:13:41;11.40;99.90
10282;DHT22;5186;59.472;18.048;2022-10-26T02:21:44;11.30;99.90
10282;DHT22;5186;59.472;18.048;2022-10-26T02:24:14;11.30;99.90
10282;DHT22;5186;59.472;18.048;2022-10-26T02:26:43;11.30;99.90
10282;DHT22;5186;59.472;18.048;2022-10-26T02:29:13;11.20;99.90
10282;DHT22;5186;59.472;18.048;2022-10-26T02:31:41;11.20;99.90
10282;DHT22;5186;59.472;18.048;2022-10-26T02:34:09;11.10;99.90
10282;DHT22;5186;59.472;18.048;2022-10-26T02:36:39;11.10;99.90
10282;DHT22;5186;59.472;18.048;2022-10-26T02:39:07;11.10;99.90
10282;DHT22;5186;59.472;18.048;2022-10-26T02:41:35;11.10;99.90
10282;DHT22;5186;59.472;18.048;2022-10-26T02:44:21;11.20;99.90
10282;DHT22;5186;59.472;18.048;2022-10-26T02:46:48;11.20;99.90
10282;DHT22;5186;59.472;18.048;2022-10-26T02:49:14;11.20;99.90
10282;DHT22;5186;59.472;18.048;2022-10-26T02:56:50;11.10;99.90
10282;DHT22;5186;59.472;18.048;2022-10-26T02:59:19;11.10;99.90
10282;DHT22;5186;59.472;18.048;2022-10-26T03:01:45;11.10;99.90
10282;DHT22;5186;59.472;18.048;2022-10-26T03:04:11;11.10;99.90
10282;DHT22;5186;59.472;18.048;2022-10-26T03:06:37;11.10;99.90
10282;DHT22;5186;59.472;18.048;2022-10-26T03:09:02;11.10;99.90
10282;DHT22;5186;59.472;18.048;2022-10-26T03:11:28;11.10;99.90
10282;DHT22;5186;59.472;18.048;2022-10-26T03:13:54;11.10;99.90
10282;DHT22;5186;59.472;18.048;2022-10-26T03:16:19;11.10;99.90
10282;DHT22;5186;59.472;18.048;2022-10-26T03:18:45;11.00;99.90
10282;DHT22;5186;59.472;18.048;2022-10-26T03:21:10;11.10;99.90
10282;DHT22;5186;59.472;18.048;2022-10-26T03:23:36;11.00;99.90
10282;DHT22;5186;59.472;18.048;2022-10-26T03:26:02;11.00;99.90
10282;DHT22;5186;59.472;18.048;2022-10-26T03:28:27;11.00;99.90
10282;DHT22;5186;59.472;18.048;2022-10-26T03:30:53;10.90;99.90
10282;DHT22;5186;59.472;18.048;2022-10-26T03:33:19;10.90;99.90
10282;DHT22;5186;59.472;18.048;2022-10-26T03:35:44;11.00;99.90
10282;DHT22;5186;59.472;18.048;2022-10-26T03:38:10;11.00;99.90
10282;DHT22;5186;59.472;18.048;2022-10-26T03:40:36;10.90;99.90
10282;DHT22;5186;59.472;18.048;2022-10-26T03:43:02;10.90;99.90
10282;DHT22;5186;59.472;18.048;2022-10-26T03:45:27;10.80;99.90
10282;DHT22;5186;59.472;18.048;2022-10-26T03:47:53;10.80;99.90
10282;DHT22;5186;59.472;18.048;2022-10-26T03:50:20;10.80;99.90
10282;DHT22;5186;59.472;18.048;2022-10-26T03:52:48;10.80;99.90
10282;DHT22;5186;59.472;18.048;2022-10-26T03:55:14;10.80;99.90
10282;DHT22;5186;59.472;18.048;2022-10-26T03:57:43;10.80;99.90
10282;DHT22;5186;59.472;18.048;2022-10-26T04:00:11;10.80;99.90
10282;DHT22;5186;59.472;18.048;2022-10-26T04:02:37;10.80;99.90
10282;DHT22;5186;59.472;18.048;2022-10-26T04:05:03;10.80;99.90
10282;DHT22;5186;59.472;18.048;2022-10-26T04:07:28;10.80;99.90
10282;DHT22;5186;59.472;18.048;2022-10-26T04:09:54;10.80;99.90
10282;DHT22;5186;59.472;18.048;2022-10-26T04:12:19;10.80;99.90
10282;DHT22;5186;59.472;18.048;2022-10-26T04:14:45;10.80;99.90
10282;DHT22;5186;59.472;18.048;2022-10-26T04:17:11;10.80;99.90
10282;DHT22;5186;59.472;18.048;2022-10-26T04:19:36;10.80;99.90
10282;DHT22;5186;59.472;18.048;2022-10-26T04:22:02;10.80;99.90
10282;DHT22;5186;59.472;18.048;2022-10-26T04:24:27;10.80;99.90
10282;DHT22;5186;59.472;18.048;2022-10-26T04:26:53;10.80;99.90
10282;DHT22;5186;59.472;18.048;2022-10-26T04:29:18;10.80;99.90
10282;DHT22;5186;59.472;18.048;2022-10-26T04:31:44;10.80;99.90
10282;DHT22;5186;59.472;18.048;2022-10-26T04:34:10;10.80;99.90
10282;DHT22;5186;59.472;18.048;2022-10-26T04:36:35;10.80;99.90
10282;DHT22;5186;59.472;18.048;2022-10-26T04:39:01;10.80;99.90
10282;DHT22;5186;59.472;18.048;2022-10-26T04:41:26;10.70;99.90
10282;DHT22;5186;59.472;18.048;2022-10-26T04:43:52;10.70;99.90
10282;DHT22;5186;59.472;18.048;2022-10-26T04:46:18;10.70;99.90
10282;DHT22;5186;59.472;18.048;2022-10-26T04:48:43;10.60;99.90
10282;DHT22;5186;59.472;18.048;2022-10-26T04:51:09;10.70;99.90
10282;DHT22;5186;59.472;18.048;2022-10-26T04:53:34;10.70;99.90
10282;DHT22;5186;59.472;18.048;2022-10-26T04:56:00;10.70;99.90
10282;DHT22;5186;59.472;18.048;2022-10-26T04:58:27;10.60;99.90
10282;DHT22;5186;59.472;18.048;2022-10-26T05:00:53;10.60;99.90
10282;DHT22;5186;59.472;18.048;2022-10-26T05:03:18;10.60;99.90
10282;DHT22;5186;59.472;18.048;2022-10-26T05:05:44;10.60;99.90
10282;DHT22;5186;59.472;18.048;2022-10-26T05:08:10;10.60;99.90
10282;DHT22;5186;59.472;18.048;2022-10-26T05:10:35;10.60;99.90
10282;DHT22;5186;59.472;18.048;2022-10-26T05:13:01;10.60;99.90
10282;DHT22;5186;59.472;18.048;2022-10-26T05:15:27;10.50;99.90
10282;DHT22;5186;59.472;18.048;2022-10-26T05:17:58;10.50;99.90
10282;DHT22;5186;59.472;18.048;2022-10-26T05:20:25;10.40;99.90
10282;DHT22;5186;59.472;18.048;2022-10-26T05:23:00;10.50;99.90
10282;DHT22;5186;59.472;18.048;2022-10-26T05:25:27;10.50;99.90
10282;DHT22;5186;59.472;18.048;2022-10-26T05:27:57;10.40;99.90
10282;DHT22;5186;59.472;18.048;2022-10-26T05:30:23;10.50;99.90
10282;DHT22;5186;59.472;18.048;2022-10-26T05:32:59;10.50;99.90
10282;DHT22;5186;59.472;18.048;2022-10-26T05:35:26;10.40;99.90
10282;DHT22;5186;59.472;18.048;2022-10-26T05:37:52;10.40;99.90
10282;DHT22;5186;59.472;18.048;2022-10-26T05:40:18;10.50;99.90
10282;DHT22;5186;59.472;18.048;2022-10-26T05:42:44;10.50;99.90
10282;DHT22;5186;59.472;18.048;2022-10-26T05:45:11;10.50;99.90
10282;DHT22;5186;59.472;18.048;2022-10-26T05:47:41;10.50;99.90
10282;DHT22;5186;59.472;18.048;2022-10-26T05:50:07;10.50;99.90
10282;DHT22;5186;59.472;18.048;2022-10-26T05:52:44;10.50;99.90
10282;DHT22;5186;59.472;18.048;2022-10-26T05:55:15;10.50;99.90
10282;DHT22;5186;59.472;18.048;2022-10-26T05:57:41;10.50;99.90
10282;DHT22;5186;59.472;18.048;2022-10-26T06:00:19;10.50;99.90
10282;DHT22;5186;59.472;18.048;2022-10-26T06:03:05;10.50;99.90
10282;DHT22;5186;59.472;18.048;2022-10-26T06:05:36;10.40;99.90
10282;DHT22;5186;59.472;18.048;2022-10-26T06:08:07;10.40;99.90
10282;DHT22;5186;59.472;18.048;2022-10-26T06:10:34;10.40;99.90
10282;DHT22;5186;59.472;18.048;2022-10-26T06:13:00;10.40;99.90
10282;DHT22;5186;59.472;18.048;2022-10-26T06:15:25;10.40;99.90
10282;DHT22;5186;59.472;18.048;2022-10-26T06:21:03;10.40;99.90
10282;DHT22;5186;59.472;18.048;2022-10-26T06:26:20;10.40;99.90
10282;DHT22;5186;59.472;18.048;2022-10-26T06:29:03;10.40;99.90
10282;DHT22;5186;59.472;18.048;2022-10-26T06:31:32;10.40;99.90
10282;DHT22;5186;59.472;18.048;2022-10-26T06:33:58;10.40;99.90
10282;DHT22;5186;59.472;18.048;2022-10-26T06:36:26;10.40;99.90
10282;DHT22;5186;59.472;18.048;2022-10-26T06:39:04;10.40;99.90
10282;DHT22;5186;59.472;18.048;2022-10-26T06:41:33;10.30;99.90
10282;DHT22;5186;59.472;18.048;2022-10-26T06:43:59;10.30;99.90
10282;DHT22;5186;59.472;18.048;2022-10-26T06:49:38;10.30;99.90
10282;DHT22;5186;59.472;18.048;2022-10-26T06:52:17;10.30;99.90
10282;DHT22;5186;59.472;18.048;2022-10-26T06:54:49;10.40;99.90
10282;DHT22;5186;59.472;18.048;2022-10-26T06:57:18;10.40;99.90
10282;DHT22;5186;59.472;18.048;2022-10-26T06:59:51;10.40;99.90
10282;DHT22;5186;59.472;18.048;2022-10-26T07:02:17;10.40;99.90
10282;DHT22;5186;59.472;18.048;2022-10-26T07:04:43;10.40;99.90
10282;DHT22;5186;59.472;18.048;2022-10-26T07:07:18;10.40;99.90
10282;DHT22;5186;59.472;18.048;2022-10-26T07:09:44;10.40;99.90
10282;DHT22;5186;59.472;18.048;2022-10-26T07:12:10;10.50;99.90
10282;DHT22;5186;59.472;18.048;2022-10-26T07:14:35;10.40;99.90
10282;DHT22;5186;59.472;18.048;2022-10-26T07:17:01;10.40;99.90
10282;DHT22;5186;59.472;18.048;2022-10-26T07:19:27;10.40;99.90
10282;DHT22;5186;59.472;18.048;2022-10-26T07:21:56;10.40;99.90
10282;DHT22;5186;59.472;18.048;2022-10-26T07:24:23;10.50;99.90
10282;DHT22;5186;59.472;18.048;2022-10-26T07:26:49;10.50;99.90
10282;DHT22;5186;59.472;18.048;2022-10-26T07:29:15;10.50;99.90
10282;DHT22;5186;59.472;18.048;2022-10-26T07:31:43;10.50;99.90
10282;DHT22;5186;59.472;18.048;2022-10-26T07:34:09;10.50;99.90
10282;DHT22;5186;59.472;18.048;2022-10-26T07:36:34;10.50;99.90
10282;DHT22;5186;59.472;18.048;2022-10-26T07:39:02;10.50;99.90
10282;DHT22;5186;59.472;18.048;2022-10-26T07:41:28;10.50;99.90
10282;DHT22;5186;59.472;18.048;2022-10-26T07:43:53;10.50;99.90
10282;DHT22;5186;59.472;18.048;2022-10-26T07:46:19;10.50;99.90
10282;DHT22;5186;59.472;18.048;2022-10-26T07:48:44;10.50;99.90
10282;DHT22;5186;59.472;18.048;2022-10-26T07:51:10;10.50;99.90
10282;DHT22;5186;59.472;18.048;2022-10-26T07:53:36;10.50;99.90
10282;DHT22;5186;59.472;18.048;2022-10-26T07:56:01;10.50;99.90
10282;DHT22;5186;59.472;18.048;2022-10-26T07:58:27;10.50;99.90
10282;DHT22;5186;59.472;18.048;2022-10-26T08:00:53;10.60;99.90
10282;DHT22;5186;59.472;18.048;2022-10-26T08:03:20;10.60;99.90
10282;DHT22;5186;59.472;18.048;2022-10-26T08:05:47;10.60;99.90
10282;DHT22;5186;59.472;18.048;2022-10-26T08:08:18;10.70;99.90
10282;DHT22;5186;59.472;18.048;2022-10-26T08:10:45;10.70;99.90
10282;DHT22;5186;59.472;18.048;2022-10-26T08:13:11;10.60;99.90
10282;DHT22;5186;59.472;18.048;2022-10-26T08:15:36;10.60;99.90
10282;DHT22;5186;59.472;18.048;2022-10-26T08:18:02;10.60;99.90
10282;DHT22;5186;59.472;18.048;2022-10-26T08:20:28;10.60;99.90
10282;DHT22;5186;59.472;18.048;2022-10-26T08:22:57;10.60;99.90
10282;DHT22;5186;59.472;18.048;2022-10-26T08:25:23;10.50;99.90
10282;DHT22;5186;59.472;18.048;2022-10-26T08:27:49;10.50;99.90
10282;DHT22;5186;59.472;18.048;2022-10-26T08:30:15;10.60;99.90
10282;DHT22;5186;59.472;18.048;2022-10-26T08:32:40;10.50;99.90
10282;DHT22;5186;59.472;18.048;2022-10-26T08:35:09;10.50;99.90
10282;DHT22;5186;59.472;18.048;2022-10-26T08:37:35;10.50;99.90
10282;DHT22;5186;59.472;18.048;2022-10-26T08:40:02;10.40;99.90
10282;DHT22;5186;59.472;18.048;2022-10-26T08:42:36;10.40;99.90
10282;DHT22;5186;59.472;18.048;2022-10-26T08:45:11;10.40;99.90
10282;DHT22;5186;59.472;18.048;2022-10-26T08:47:42;10.40;99.90
10282;DHT22;5186;59.472;18.048;2022-10-26T08:55:52;10.30;99.90
10282;DHT22;5186;59.472;18.048;2022-10-26T08:58:23;10.40;99.90
10282;DHT22;5186;59.472;18.048;2022-10-26T09:00:50;10.30;99.90
10282;DHT22;5186;59.472;18.048;2022-10-26T09:03:18;10.40;99.90
10282;DHT22;5186;59.472;18.048;2022-10-26T09:05:56;10.40;99.90
10282;DHT22;5186;59.472;18.048;2022-10-26T09:08:53;10.40;99.90
10282;DHT22;5186;59.472;18.048;2022-10-26T09:14:20;10.40;99.90
10282;DHT22;5186;59.472;18.048;2022-10-26T09:19:33;10.50;99.90
10282;DHT22;5186;59.472;18.048;2022-10-26T09:22:16;10.50;99.90
10282;DHT22;5186;59.472;18.048;2022-10-26T09:24:53;10.60;99.90
10282;DHT22;5186;59.472;18.048;2022-10-26T09:27:27;10.60;99.90
10282;DHT22;5186;59.472;18.048;2022-10-26T09:29:58;10.60;99.90
10282;DHT22;5186;59.472;18.048;2022-10-26T09:32:30;10.70;99.90
10282;DHT22;5186;59.472;18.048;2022-10-26T09:35:03;10.70;99.90
10282;DHT22;5186;59.472;18.048;2022-10-26T09:37:42;10.70;99.90
10282;DHT22;5186;59.472;18.048;2022-10-26T09:43:00;10.60;99.90
10282;DHT22;5186;59.472;18.048;2022-10-26T09:45:35;10.60;99.90
10282;DHT22;5186;59.472;18.048;2022-10-26T09:48:19;10.70;99.90
10282;DHT22;5186;59.472;18.048;2022-10-26T09:50:49;10.70;99.90
10282;DHT22;5186;59.472;18.048;2022-10-26T09:53:15;10.80;99.90
10282;DHT22;5186;59.472;18.048;2022-10-26T09:55:49;10.80;99.90
10282;DHT22;5186;59.472;18.048;2022-10-26T09:58:19;10.80;99.90
10282;DHT22;5186;59.472;18.048;2022-10-26T10:00:45;10.80;99.90
10282;DHT22;5186;59.472;18.048;2022-10-26T10:03:28;10.80;99.90
10282;DHT22;5186;59.472;18.048;2022-10-26T10:08:40;10.90;99.90
10282;DHT22;5186;59.472;18.048;2022-10-26T10:11:08;10.90;99.90
10282;DHT22;5186;59.472;18.048;2022-10-26T10:13:44;11.00;99.90
10282;DHT22;5186;59.472;18.048;2022-10-26T10:16:20;10.90;99.90
10282;DHT22;5186;59.472;18.048;2022-10-26T10:18:55;10.90;99.90
10282;DHT22;5186;59.472;18.048;2022-10-26T10:21:35;10.80;99.90
10282;DHT22;5186;59.472;18.048;2022-10-26T10:24:23;10.80;99.90
10282;DHT22;5186;59.472;18.048;2022-10-26T10:29:33;10.80;99.90
10282;DHT22;5186;59.472;18.048;2022-10-26T10:32:01;10.80;99.90
10282;DHT22;5186;59.472;18.048;2022-10-26T10:34:30;10.90;99.90
10282;DHT22;5186;59.472;18.048;2022-10-26T10:36:56;10.90;99.90
10282;DHT22;5186;59.472;18.048;2022-10-26T10:42:33;10.90;99.90
10282;DHT22;5186;59.472;18.048;2022-10-26T10:45:00;10.90;99.90
10282;DHT22;5186;59.472;18.048;2022-10-26T10:47:32;11.00;99.90
10282;DHT22;5186;59.472;18.048;2022-10-26T10:50:05;11.00;99.90
10282;DHT22;5186;59.472;18.048;2022-10-26T10:52:33;11.00;99.90
10282;DHT22;5186;59.472;18.048;2022-10-26T10:55:20;11.10;99.90
10282;DHT22;5186;59.472;18.048;2022-10-26T10:58:08;11.10;99.90
10282;DHT22;5186;59.472;18.048;2022-10-26T11:00:40;11.10;99.90
10282;DHT22;5186;59.472;18.048;2022-10-26T11:03:14;11.10;99.90
10282;DHT22;5186;59.472;18.048;2022-10-26T11:06:41;11.10;99.90
10282;DHT22;5186;59.472;18.048;2022-10-26T11:08:59;11.10;99.90
10282;DHT22;5186;59.472;18.048;2022-10-26T11:11:38;11.10;99.90
10282;DHT22;5186;59.472;18.048;2022-10-26T11:14:25;11.00;99.90
10282;DHT22;5186;59.472;18.048;2022-10-26T11:17:02;11.00;99.90
10282;DHT22;5186;59.472;18.048;2022-10-26T11:19:36;11.10;99.90
10282;DHT22;5186;59.472;18.048;2022-10-26T11:22:10;11.10;99.90
10282;DHT22;5186;59.472;18.048;2022-10-26T11:27:18;11.10;99.90
10282;DHT22;5186;59.472;18.048;2022-10-26T11:29:49;11.10;99.90
10282;DHT22;5186;59.472;18.048;2022-10-26T11:32:26;11.00;99.90
10282;DHT22;5186;59.472;18.048;2022-10-26T11:35:10;11.00;99.90
10282;DHT22;5186;59.472;18.048;2022-10-26T11:37:48;10.90;99.90
10282;DHT22;5186;59.472;18.048;2022-10-26T11:40:28;10.90;99.90
10282;DHT22;5186;59.472;18.048;2022-10-26T11:43:11;10.90;99.90
10282;DHT22;5186;59.472;18.048;2022-10-26T11:45:44;10.90;99.90
10282;DHT22;5186;59.472;18.048;2022-10-26T11:48:22;11.00;99.90
10282;DHT22;5186;59.472;18.048;2022-10-26T11:50:56;11.00;99.90
10282;DHT22;5186;59.472;18.048;2022-10-26T11:53:36;11.00;99.90
10282;DHT22;5186;59.472;18.048;2022-10-26T11:56:09;11.00;99.90
10282;DHT22;5186;59.472;18.048;2022-10-26T11:58:36;10.90;99.90
10282;DHT22;5186;59.472;18.048;2022-10-26T12:01:10;10.80;99.90
10282;DHT22;5186;59.472;18.048;2022-10-26T12:03:40;10.70;99.90
10282;DHT22;5186;59.472;18.048;2022-10-26T12:06:10;10.70;99.90
10282;DHT22;5186;59.472;18.048;2022-10-26T12:08:42;10.70;99.90
10282;DHT22;5186;59.472;18.048;2022-10-26T12:11:37;10.60;99.90
10282;DHT22;5186;59.472;18.048;2022-10-26T12:14:35;10.50;99.90
10282;DHT22;5186;59.472;18.048;2022-10-26T12:22:43;10.50;99.90
10282;DHT22;5186;59.472;18.048;2022-10-26T12:30:22;10.50;99.90
10282;DHT22;5186;59.472;18.048;2022-10-26T12:32:51;10.40;99.90
10282;DHT22;5186;59.472;18.048;2022-10-26T12:48:41;10.40;99.90
10282;DHT22;5186;59.472;18.048;2022-10-26T12:54:24;10.40;99.90
10282;DHT22;5186;59.472;18.048;2022-10-26T12:56:59;10.40;99.90
10282;DHT22;5186;59.472;18.048;2022-10-26T12:59:50;10.40;99.90
10282;DHT22;5186;59.472;18.048;2022-10-26T13:07:41;10.50;99.90
10282;DHT22;5186;59.472;18.048;2022-10-26T13:12:46;10.50;99.90
10282;DHT22;5186;59.472;18.048;2022-10-26T13:15:28;10.60;99.90
10282;DHT22;5186;59.472;18.048;2022-10-26T13:17:58;10.60;99.90
10282;DHT22;5186;59.472;18.048;2022-10-26T13:20:26;10.60;99.90
10282;DHT22;5186;59.472;18.048;2022-10-26T13:22:53;10.70;99.90
10282;DHT22;5186;59.472;18.048;2022-10-26T13:25:28;10.60;99.90
10282;DHT22;5186;59.472;18.048;2022-10-26T13:28:03;10.70;99.90
10282;DHT22;5186;59.472;18.048;2022-10-26T13:32:59;10.70;99.90
10282;DHT22;5186;59.472;18.048;2022-10-26T13:35:26;10.80;99.90
10282;DHT22;5186;59.472;18.048;2022-10-26T13:37:54;10.80;99.90
10282;DHT22;5186;59.472;18.048;2022-10-26T13:40:23;10.70;99.90
10282;DHT22;5186;59.472;18.048;2022-10-26T13:43:02;10.70;99.90
10282;DHT22;5186;59.472;18.048;2022-10-26T13:45:32;10.70;99.90
10282;DHT22;5186;59.472;18.048;2022-10-26T13:48:10;10.70;99.90
10282;DHT22;5186;59.472;18.048;2022-10-26T13:50:45;10.60;99.90
10282;DHT22;5186;59.472;18.048;2022-10-26T13:53:22;10.70;99.90
10282;DHT22;5186;59.472;18.048;2022-10-26T13:55:56;10.70;99.90
10282;DHT22;5186;59.472;18.048;2022-10-26T13:58:46;10.70;99.90
10282;DHT22;5186;59.472;18.048;2022-10-26T14:01:15;10.60;99.90
10282;DHT22;5186;59.472;18.048;2022-10-26T14:03:42;10.70;99.90
10282;DHT22;5186;59.472;18.048;2022-10-26T14:06:25;10.60;99.90
10282;DHT22;5186;59.472;18.048;2022-10-26T14:08:54;10.60;99.90
10282;DHT22;5186;59.472;18.048;2022-10-26T14:11:24;10.60;99.90
10282;DHT22;5186;59.472;18.048;2022-10-26T14:13:52;10.60;99.90
10282;DHT22;5186;59.472;18.048;2022-10-26T14:16:18;10.60;99.90
10282;DHT22;5186;59.472;18.048;2022-10-26T14:18:46;10.60;99.90
10282;DHT22;5186;59.472;18.048;2022-10-26T14:21:18;10.60;99.90
10282;DHT22;5186;59.472;18.048;2022-10-26T14:23:54;10.60;99.90
10282;DHT22;5186;59.472;18.048;2022-10-26T14:29:01;10.50;99.90
10282;DHT22;5186;59.472;18.048;2022-10-26T14:31:29;10.50;99.90
10282;DHT22;5186;59.472;18.048;2022-10-26T14:33:57;10.50;99.90
10282;DHT22;5186;59.472;18.048;2022-10-26T14:36:32;10.40;99.90
10282;DHT22;5186;59.472;18.048;2022-10-26T14:39:04;10.50;99.90
10282;DHT22;5186;59.472;18.048;2022-10-26T14:41:31;10.50;99.90
10282;DHT22;5186;59.472;18.048;2022-10-26T14:43:59;10.50;99.90
10282;DHT22;5186;59.472;18.048;2022-10-26T14:46:27;10.40;99.90
10282;DHT22;5186;59.472;18.048;2022-10-26T14:48:58;10.40;99.90
10282;DHT22;5186;59.472;18.048;2022-10-26T14:51:26;10.40;99.90
10282;DHT22;5186;59.472;18.048;2022-10-26T14:53:55;10.40;99.90
10282;DHT22;5186;59.472;18.048;2022-10-26T14:56:39;10.40;99.90
10282;DHT22;5186;59.472;18.048;2022-10-26T14:59:11;10.40;99.90
10282;DHT22;5186;59.472;18.048;2022-10-26T15:02:18;10.40;99.90
10282;DHT22;5186;59.472;18.048;2022-10-26T15:04:59;10.40;99.90
10282;DHT22;5186;59.472;18.048;2022-10-26T15:07:34;10.50;99.90
10282;DHT22;5186;59.472;18.048;2022-10-26T15:10:01;10.50;99.90
10282;DHT22;5186;59.472;18.048;2022-10-26T15:12:37;10.50;99.90
10282;DHT22;5186;59.472;18.048;2022-10-26T15:17:54;10.50;99.90
10282;DHT22;5186;59.472;18.048;2022-10-26T15:20:22;10.40;99.90
10282;DHT22;5186;59.472;18.048;2022-10-26T15:23:10;10.50;99.90
10282;DHT22;5186;59.472;18.048;2022-10-26T15:25:38;10.50;99.90
10282;DHT22;5186;59.472;18.048;2022-10-26T15:28:21;10.50;99.90
10282;DHT22;5186;59.472;18.048;2022-10-26T15:31:06;10.50;99.90
10282;DHT22;5186;59.472;18.048;2022-10-26T15:33:32;10.50;99.90
10282;DHT22;5186;59.472;18.048;2022-10-26T15:38:35;10.50;99.90
10282;DHT22;5186;59.472;18.048;2022-10-26T15:41:02;10.50;99.90
10282;DHT22;5186;59.472;18.048;2022-10-26T15:43:29;10.50;99.90
10282;DHT22;5186;59.472;18.048;2022-10-26T15:45:55;10.50;99.90
10282;DHT22;5186;59.472;18.048;2022-10-26T15:48:30;10.50;99.90
10282;DHT22;5186;59.472;18.048;2022-10-26T15:50:56;10.50;99.90
10282;DHT22;5186;59.472;18.048;2022-10-26T15:53:24;10.50;99.90
10282;DHT22;5186;59.472;18.048;2022-10-26T15:55:55;10.50;99.90
10282;DHT22;5186;59.472;18.048;2022-10-26T15:58:22;10.50;99.90
10282;DHT22;5186;59.472;18.048;2022-10-26T16:00:47;10.40;99.90
10282;DHT22;5186;59.472;18.048;2022-10-26T16:03:17;10.30;99.90
10282;DHT22;5186;59.472;18.048;2022-10-26T16:05:44;10.40;99.90
10282;DHT22;5186;59.472;18.048;2022-10-26T16:08:14;10.30;99.90
10282;DHT22;5186;59.472;18.048;2022-10-26T16:10:41;10.30;99.90
10282;DHT22;5186;59.472;18.048;2022-10-26T16:13:11;10.30;99.90
10282;DHT22;5186;59.472;18.048;2022-10-26T16:15:37;10.20;99.90
10282;DHT22;5186;59.472;18.048;2022-10-26T16:18:03;10.20;99.90
10282;DHT22;5186;59.472;18.048;2022-10-26T16:20:28;10.10;99.90
10282;DHT22;5186;59.472;18.048;2022-10-26T16:22:54;10.10;99.90
10282;DHT22;5186;59.472;18.048;2022-10-26T16:25:22;10.10;99.90
10282;DHT22;5186;59.472;18.048;2022-10-26T16:27:48;10.00;99.90
10282;DHT22;5186;59.472;18.048;2022-10-26T16:30:14;10.00;99.90
10282;DHT22;5186;59.472;18.048;2022-10-26T16:32:41;10.10;99.90
10282;DHT22;5186;59.472;18.048;2022-10-26T16:35:07;10.10;99.90
10282;DHT22;5186;59.472;18.048;2022-10-26T16:37:33;10.10;99.90
10282;DHT22;5186;59.472;18.048;2022-10-26T16:39:59;10.00;99.90
10282;DHT22;5186;59.472;18.048;2022-10-26T16:42:24;10.00;99.90
10282;DHT22;5186;59.472;18.048;2022-10-26T16:44:50;10.00;99.90
10282;DHT22;5186;59.472;18.048;2022-10-26T16:47:16;10.00;99.90
10282;DHT22;5186;59.472;18.048;2022-10-26T16:49:41;10.00;99.90
10282;DHT22;5186;59.472;18.048;2022-10-26T16:52:08;10.00;99.90
10282;DHT22;5186;59.472;18.048;2022-10-26T16:54:34;10.00;99.90
10282;DHT22;5186;59.472;18.048;2022-10-26T16:56:59;9.90;99.90
10282;DHT22;5186;59.472;18.048;2022-10-26T16:59:25;9.90;99.90
10282;DHT22;5186;59.472;18.048;2022-10-26T17:01:51;9.90;99.90
10282;DHT22;5186;59.472;18.048;2022-10-26T17:04:17;9.90;99.90
10282;DHT22;5186;59.472;18.048;2022-10-26T17:06:42;9.90;99.90
10282;DHT22;5186;59.472;18.048;2022-10-26T17:09:08;9.90;99.90
10282;DHT22;5186;59.472;18.048;2022-10-26T17:11:33;9.90;99.90
10282;DHT22;5186;59.472;18.048;2022-10-26T17:13:59;10.00;99.90
10282;DHT22;5186;59.472;18.048;2022-10-26T17:16:25;10.00;99.90
10282;DHT22;5186;59.472;18.048;2022-10-26T17:18:52;10.00;99.90
10282;DHT22;5186;59.472;18.048;2022-10-26T17:21:19;10.00;99.90
10282;DHT22;5186;59.472;18.048;2022-10-26T17:23:51;10.00;99.90
10282;DHT22;5186;59.472;18.048;2022-10-26T17:26:16;10.00;99.90
10282;DHT22;5186;59.472;18.048;2022-10-26T17:28:42;10.00;99.90
10282;DHT22;5186;59.472;18.048;2022-10-26T17:31:10;10.00;99.90
10282;DHT22;5186;59.472;18.048;2022-10-26T17:33:37;10.00;99.90
10282;DHT22;5186;59.472;18.048;2022-10-26T17:36:05;10.10;99.90
10282;DHT22;5186;59.472;18.048;2022-10-26T17:38:32;10.00;99.90
10282;DHT22;5186;59.472;18.048;2022-10-26T17:41:06;10.00;99.90
10282;DHT22;5186;59.472;18.048;2022-10-26T17:43:34;10.00;99.90